Terminal Aerodrome Forecast
Issued by NWS Midland/Odessa, TX

Home | Current Version | Previous Version | Text Only | Print | Product List | Glossary On
Versions: 1 2 3 4 5 6 7 8 9 10 11 12 13 14 15 16 17
000
FTUS44 KMAF 120500
TAFMAF
TAF
KMAF 120533Z 1206/1306 15012KT P6SM SCT040
      TEMPO 1210/1214 BKN040
     FM121500 16016G25KT P6SM BKN060 BKN250
     FM130100 15009KT P6SM FEW060 SCT250=

USA.gov is the U.S. government's official web portal to all federal, state and local government web resources and services.